Corona Range LRC Data

Date Time Air Temperature Relative Humidity Dewpoint Windchill Heat Index Wind Speed Wind Dir. Rain Solar Radiation Soil Temperature
2m 2m 3m 3m 10cm
US/Mountain F % F F F MPH deg in MJ/m^2 F
max avg avg
2021-10-14 00:05:00 49.0 37.0 23.8 45.4 49.0 8.3 10.6 9.0 171.6 199.5 0.00 0.0000000 57.9
2021-10-14 00:10:00 48.8 37.1 23.8 45.1 48.8 8.3 11.2 8.7 177.8 190.0 0.00 0.0000000 57.8
2021-10-14 00:15:00 48.5 37.3 23.6 45.0 48.5 8.0 11.2 8.7 215.2 196.0 0.00 0.0000000 57.7
2021-10-14 00:20:00 48.3 37.8 23.7 43.8 48.3 10.3 11.9 8.4 223.3 193.5 0.00 0.0000000 57.7
2021-10-14 00:25:00 48.4 37.7 23.7 44.5 48.4 8.5 10.8 8.6 212.7 211.2 0.00 0.0000000 57.6
2021-10-14 00:30:00 48.4 37.6 23.7 44.9 48.4 7.8 9.2 8.1 228.3 217.7 0.00 0.0000000 57.5
2021-10-14 00:35:00 48.2 38.0 23.8 45.6 48.2 5.8 9.0 7.5 226.4 209.3 0.00 0.0000000 57.5
2021-10-14 00:40:00 48.4 37.9 23.9 44.9 48.4 7.8 9.0 7.6 217.2 213.5 0.00 0.0000000 57.4
2021-10-14 00:45:00 48.6 37.9 24.0 45.7 48.6 6.5 8.7 7.2 222.6 218.5 0.00 0.0000000 57.4
2021-10-14 00:50:00 48.1 38.4 23.9 44.9 48.1 7.1 7.6 6.3 237.7 218.9 0.00 0.0000000 57.3
2021-10-14 00:55:00 48.4 37.9 23.9 46.3 48.4 5.1 11.9 6.7 207.8 229.4 0.00 0.0000000 57.3
2021-10-14 01:00:00 48.0 38.0 23.6 45.4 48.0 5.6 10.5 6.4 254.3 226.6 0.00 0.0000000 57.2
2021-10-14 01:05:00 48.0 37.8 23.5 45.9 48.0 4.9 8.0 5.9 245.6 235.6 0.00 0.0000000 57.2
2021-10-14 01:10:00 47.1 38.3 22.9 45.1 47.1 4.6 6.5 5.0 241.0 243.6 0.00 0.0000000 57.1
2021-10-14 01:15:00 45.2 40.8 22.7 42.3 45.2 5.3 6.2 5.3 248.8 237.2 0.00 0.0000000 57.1
2021-10-14 01:20:00 45.6 40.6 23.0 44.2 45.6 3.5 6.9 5.5 248.4 230.4 0.00 0.0000000 57.0
2021-10-14 01:25:00 46.0 39.7 22.8 42.9 46.0 6.0 8.3 5.6 280.0 236.6 0.00 0.0000000 56.9
2021-10-14 01:30:00 48.1 35.7 22.1 45.1 48.1 6.5 11.2 6.8 229.6 242.5 0.00 0.0000083 56.9
2021-10-14 01:35:00 46.5 37.3 21.7 44.5 46.5 4.4 7.8 5.8 268.2 256.6 0.00 0.0000000 56.8
2021-10-14 01:40:00 44.6 39.1 21.2 41.5 44.6 5.6 7.8 4.8 267.1 260.5 0.00 0.0000000 56.8
2021-10-14 01:45:00 44.7 40.8 22.3 42.8 44.7 4.0 7.8 4.4 235.2 224.6 0.00 0.0000000 56.8
2021-10-14 01:50:00 45.3 37.7 21.0 45.3 45.3 2.8 7.8 5.6 302.8 250.4 0.00 0.0000000 56.7
2021-10-14 01:55:00 44.1 38.1 20.2 40.6 44.1 6.2 7.6 4.1 300.4 293.5 0.00 0.0000000 56.6
2021-10-14 02:00:00 46.5 33.3 19.1 44.4 46.5 4.6 8.7 6.2 329.0 274.3 0.00 0.0000600 56.6
2021-10-14 02:05:00 48.1 38.5 24.0 45.4 48.1 6.0 9.0 6.5 256.1 281.6 0.00 0.0000000 56.5
2021-10-14 02:10:00 49.2 34.5 22.4 47.2 49.2 5.1 8.5 5.6 268.9 271.4 0.00 0.0000000 56.4
2021-10-14 02:15:00 48.8 36.6 23.4 43.7 48.8 12.4 14.0 8.3 304.3 299.2 0.00 0.0000000 56.4
2021-10-14 02:20:00 47.0 34.8 20.6 44.3 47.0 5.6 10.5 5.4 331.7 310.1 0.00 0.0000000 56.3
2021-10-14 02:25:00 45.7 35.0 19.6 44.1 45.7 3.7 5.8 3.5 303.1 303.2 0.00 0.0000000 56.3
2021-10-14 02:30:00 43.6 36.7 18.8 40.4 43.6 5.5 6.3 5.1 326.7 311.9 0.00 0.0000000 56.2
2021-10-14 02:35:00 42.5 37.2 18.2 38.5 42.5 6.3 6.3 4.4 264.3 304.8 0.00 0.0000000 56.2
2021-10-14 02:40:00 42.4 37.0 17.9 39.3 42.4 4.9 6.7 5.0 320.9 288.8 0.00 0.0000000 56.1
2021-10-14 02:45:00 41.6 38.4 18.1 39.3 41.6 3.8 5.8 4.7 319.0 309.8 0.00 0.0000000 56.0
2021-10-14 02:50:00 41.0 39.3 18.1 38.8 41.0 3.7 5.5 3.8 303.8 279.8 0.00 0.0000000 56.0
2021-10-14 02:55:00 40.3 41.1 18.5 37.0 40.3 4.7 4.9 4.1 306.8 289.5 0.00 0.0000000 55.9
2021-10-14 03:00:00 40.5 40.9 18.6 36.6 40.5 5.6 6.7 5.8 318.0 309.7 0.00 0.0000000 55.9
2021-10-14 03:05:00 40.7 41.0 18.8 36.9 40.7 5.5 6.5 5.8 305.6 309.1 0.00 0.0000000 55.8
2021-10-14 03:10:00 40.4 41.2 18.7 36.7 40.4 5.3 5.8 5.2 318.5 309.3 0.00 0.0000000 55.7
2021-10-14 03:15:00 39.9 41.8 18.6 37.0 39.9 4.2 5.3 4.8 316.4 315.5 0.00 0.0000000 55.7
2021-10-14 03:20:00 39.1 42.9 18.4 35.6 39.1 4.7 5.6 4.4 318.4 327.3 0.00 0.0000000 55.6
2021-10-14 03:25:00 39.8 41.1 18.0 36.9 39.8 4.2 6.2 5.0 304.3 309.2 0.00 0.0000000 55.6
2021-10-14 03:30:00 40.5 40.1 18.1 35.3 40.5 7.8 7.8 5.4 301.2 302.8 0.00 0.0000000 55.5
2021-10-14 03:35:00 40.2 41.2 18.5 36.1 40.2 5.8 8.3 6.5 303.3 293.1 0.00 0.0000000 55.4
2021-10-14 03:40:00 39.9 41.7 18.5 36.2 39.9 5.3 8.0 6.2 296.3 279.4 0.00 0.0000000 55.4
2021-10-14 03:45:00 39.8 41.9 18.5 35.6 39.8 5.8 6.2 5.1 286.9 278.5 0.00 0.0000000 55.3
2021-10-14 03:50:00 39.9 41.8 18.6 35.9 39.9 5.6 6.9 6.0 331.4 285.3 0.00 0.0000000 55.3
2021-10-14 03:55:00 39.4 43.0 18.8 36.0 39.4 4.7 5.6 4.7 247.2 297.1 0.00 0.0000000 55.2
2021-10-14 04:00:00 38.3 44.8 18.7 34.9 38.3 4.6 5.8 4.9 316.6 307.6 0.00 0.0000000 55.1
2021-10-14 04:05:00 37.4 46.5 18.8 34.1 37.4 4.2 4.4 3.9 321.3 310.9 0.00 0.0000000 55.1
2021-10-14 04:10:00 36.4 48.7 18.9 32.1 36.4 5.1 5.3 4.5 294.5 312.6 0.00 0.0000000 55.0
2021-10-14 04:15:00 36.4 49.0 19.1 32.6 36.4 4.6 5.6 5.0 302.6 316.2 0.00 0.0000000 54.9
2021-10-14 04:20:00 36.2 49.4 19.1 32.9 36.2 4.0 5.6 4.5 321.9 311.6 0.00 0.0000000 54.9
2021-10-14 04:25:00 35.6 50.8 19.2 32.8 35.6 3.5 4.2 3.5 337.4 320.7 0.00 0.0000000 54.8
2021-10-14 04:30:00 35.6 51.8 19.6 35.6 35.6 3.0 4.0 3.3 0.5 338.7 0.00 0.0000000 54.7
2021-10-14 04:35:00 35.6 52.5 19.9 35.6 35.6 2.1 3.0 2.2 9.1 353.8 0.00 0.0000000 54.7
2021-10-14 04:40:00 35.7 52.1 19.8 35.7 35.7 2.4 2.6 1.8 26.1 23.0 0.00 0.0000000 54.6
2021-10-14 04:45:00 35.6 52.9 20.1 35.6 35.6 2.1 2.8 2.2 6.9 22.0 0.00 0.0000000 54.5
2021-10-14 04:50:00 35.2 54.1 20.2 35.2 35.2 2.8 3.0 2.4 316.0 326.2 0.00 0.0000000 54.5
2021-10-14 04:55:00 35.2 54.3 20.4 31.7 35.2 4.0 4.9 4.2 323.0 299.5 0.00 0.0000000 54.4
2021-10-14 05:00:00 35.3 54.2 20.4 31.1 35.3 4.7 5.1 4.3 324.4 304.6 0.00 0.0000000 54.4
2021-10-14 05:05:00 35.0 53.9 19.9 31.5 35.0 4.0 4.6 3.9 219.9 305.7 0.00 0.0000000 54.3
2021-10-14 05:10:00 35.0 52.8 19.5 30.8 35.0 4.7 4.7 3.8 284.1 309.8 0.00 0.0000000 54.2
2021-10-14 05:15:00 34.9 51.9 19.0 29.8 34.9 5.8 5.8 5.4 290.7 301.4 0.00 0.0000000 54.1
2021-10-14 05:20:00 34.6 51.7 18.6 29.6 34.6 5.6 6.3 5.7 312.4 300.0 0.00 0.0000000 54.1
2021-10-14 05:25:00 35.6 48.9 18.2 30.6 35.6 5.8 6.5 5.6 228.6 288.4 0.00 0.0000000 54.0
2021-10-14 05:30:00 37.0 44.7 17.5 33.0 37.0 4.9 6.2 5.2 309.7 294.3 0.00 0.0000000 53.9
2021-10-14 05:35:00 38.4 41.4 17.0 35.0 38.4 4.6 6.2 4.7 295.0 271.6 0.00 0.0000000 53.9
2021-10-14 05:40:00 38.6 40.5 16.6 34.7 38.6 5.1 6.3 5.1 284.6 273.7 0.00 0.0000000 53.8
2021-10-14 05:45:00 38.2 40.7 16.4 33.5 38.2 6.2 6.7 5.5 283.3 267.1 0.00 0.0000000 53.7
2021-10-14 05:50:00 38.1 39.9 15.8 33.4 38.1 6.2 6.9 5.6 253.4 265.7 0.00 0.0000000 53.7
2021-10-14 05:55:00 38.2 40.2 16.1 34.8 38.2 4.6 6.2 5.4 245.8 266.8 0.00 0.0000000 53.6
2021-10-14 06:00:00 38.4 40.1 16.2 33.8 38.4 6.0 6.0 5.3 282.9 270.8 0.00 0.0000000 53.5
2021-10-14 06:05:00 40.0 37.6 16.1 36.1 40.0 5.5 8.0 5.7 263.4 267.4 0.00 0.0000000 53.5
2021-10-14 06:10:00 41.9 35.1 16.3 39.0 41.9 4.6 8.1 6.2 280.4 270.5 0.00 0.0000000 53.4
2021-10-14 06:15:00 41.4 36.1 16.4 38.0 41.4 5.1 6.7 5.4 293.6 277.8 0.00 0.0000000 53.3
2021-10-14 06:20:00 42.0 35.6 16.7 37.7 42.0 6.7 7.4 6.2 283.6 272.5 0.00 0.0000000 53.3
2021-10-14 06:25:00 43.5 34.5 17.3 38.8 43.5 8.1 8.1 6.4 264.7 268.1 0.00 0.0000000 53.2
2021-10-14 06:30:00 44.7 33.1 17.4 40.3 44.7 8.0 9.0 7.7 243.8 268.2 0.00 0.0000000 53.2
2021-10-14 06:35:00 44.6 32.9 17.2 40.9 44.6 6.5 8.3 6.5 281.6 268.2 0.00 0.0000000 53.1
2021-10-14 06:40:00 44.6 32.9 17.2 41.9 44.6 4.9 7.4 6.0 285.3 273.7 0.00 0.0000000 53.0
2021-10-14 06:45:00 44.1 33.3 17.0 41.1 44.1 5.1 8.1 5.4 259.1 276.4 0.00 0.0000000 53.0
2021-10-14 06:50:00 42.9 34.4 16.7 40.5 42.9 4.2 5.1 4.0 287.8 275.0 0.00 0.0000000 52.9
2021-10-14 06:55:00 42.9 34.4 16.7 42.9 42.9 3.0 3.8 2.9 284.1 284.1 0.00 0.0000000 52.8
2021-10-14 07:00:00 43.6 33.2 16.5 43.6 43.6 2.2 3.5 2.8 280.9 283.3 0.00 0.0000000 52.8
2021-10-14 07:05:00 43.7 32.9 16.4 41.7 43.7 3.8 4.4 3.1 301.7 287.2 0.00 0.0000000 52.7
2021-10-14 07:10:00 41.4 37.4 17.3 38.0 41.4 5.1 5.1 4.0 264.4 301.4 0.00 0.0000000 52.7
2021-10-14 07:15:00 39.4 41.0 17.7 36.3 39.4 4.4 5.3 4.1 296.6 278.1 0.00 0.0002952 52.6
2021-10-14 07:20:00 39.2 41.5 17.7 39.2 39.2 3.0 4.4 3.4 283.6 272.7 0.00 0.0033159 52.6
2021-10-14 07:25:00 39.7 40.4 17.6 36.6 39.7 4.4 4.7 3.7 149.6 267.0 0.00 0.0069318 52.5
2021-10-14 07:30:00 40.5 39.8 17.9 37.5 40.5 4.4 4.9 3.7 286.3 280.2 0.00 0.0099018 52.5
2021-10-14 07:35:00 42.1 37.8 18.1 39.8 42.1 3.8 5.8 4.5 262.6 272.9 0.00 0.0127494 52.4
2021-10-14 07:40:00 44.5 35.2 18.7 42.0 44.5 4.7 7.4 6.0 273.9 261.0 0.00 0.0158212 52.4
2021-10-14 07:45:00 45.9 33.4 18.7 42.3 45.9 6.9 8.8 6.4 285.6 270.0 0.00 0.0183869 52.3
2021-10-14 07:50:00 46.5 33.3 19.1 44.8 46.5 4.0 8.3 5.9 266.4 268.0 0.00 0.0207731 52.3
2021-10-14 07:55:00 46.9 32.6 19.0 45.3 46.9 4.0 6.3 4.6 248.3 274.1 0.00 0.0233586 52.2
2021-10-14 08:00:00 47.7 31.5 18.8 45.7 47.7 4.6 5.5 3.9 266.9 267.1 0.00 0.0261543 52.2
2021-10-14 08:05:00 48.8 29.1 18.0 46.2 48.8 6.2 9.0 6.2 253.9 255.5 0.00 0.0294364 52.1
2021-10-14 08:10:00 50.0 27.4 17.6 50.0 50.0 8.5 12.6 8.0 245.4 256.7 0.00 0.0325893 52.1
2021-10-14 08:15:00 50.6 27.3 18.0 50.6 50.6 7.4 13.9 9.4 267.1 256.2 0.00 0.0354828 52.0
2021-10-14 08:20:00 50.8 27.0 18.0 50.8 50.8 10.1 13.9 11.1 248.5 251.9 0.00 0.0385313 52.0
2021-10-14 08:25:00 50.9 26.0 17.1 50.9 50.9 15.3 16.4 13.0 274.8 255.9 0.00 0.0417988 51.9
2021-10-14 08:30:00 51.2 25.7 17.2 51.2 51.2 11.9 15.3 12.4 266.2 253.0 0.00 0.0448564 51.9
2021-10-14 08:35:00 51.5 25.0 16.9 51.5 51.5 11.3 15.8 12.6 259.7 241.7 0.00 0.0480429 51.9
2021-10-14 08:40:00 51.7 24.5 16.5 51.7 51.7 13.1 16.0 13.0 257.0 257.0 0.00 0.0512069 51.9
2021-10-14 08:45:00 52.0 24.7 16.9 52.0 52.0 10.3 15.1 12.2 184.6 251.8 0.00 0.0543584 51.8
2021-10-14 08:50:00 52.4 24.6 17.2 52.4 52.4 9.2 15.3 11.3 259.2 260.4 0.00 0.0574062 51.8
2021-10-14 08:55:00 52.6 24.2 16.9 52.6 52.6 10.6 16.9 12.2 251.0 247.4 0.00 0.0604251 51.8
2021-10-14 09:00:00 52.6 23.7 16.6 52.6 52.6 13.0 16.0 12.7 263.9 251.6 0.00 0.0635045 51.7
2021-10-14 09:05:00 53.2 23.0 16.4 53.2 53.2 13.1 14.4 11.4 236.9 240.7 0.00 0.0666231 51.7
2021-10-14 09:10:00 53.5 23.1 16.7 53.5 53.5 9.6 16.0 10.9 234.5 246.1 0.00 0.0695135 51.7
2021-10-14 09:15:00 53.8 22.8 16.6 53.8 53.8 11.0 15.6 11.6 264.5 244.2 0.00 0.0725065 51.7
2021-10-14 09:20:00 54.0 22.1 16.1 54.0 54.0 11.7 14.9 11.5 145.0 251.2 0.00 0.0755719 51.8
2021-10-14 09:25:00 54.0 21.6 15.6 54.0 54.0 15.3 17.1 12.8 204.6 250.0 0.00 0.0785434 51.8
2021-10-14 09:30:00 53.8 21.9 15.7 53.8 53.8 13.1 19.0 13.8 248.7 232.4 0.00 0.0814881 51.8
2021-10-14 09:35:00 53.8 21.2 14.9 53.8 53.8 19.0 19.0 15.1 242.6 236.0 0.00 0.0845555 51.8
2021-10-14 09:40:00 54.2 20.0 14.0 54.2 54.2 14.4 19.2 15.1 187.4 227.8 0.00 0.0877315 51.8
2021-10-14 09:45:00 54.6 19.5 13.7 54.6 54.6 15.5 19.0 14.6 147.0 214.5 0.00 0.0907708 51.9
2021-10-14 09:50:00 54.8 19.1 13.5 54.8 54.8 13.7 21.4 14.7 231.6 232.0 0.00 0.0935291 51.9
2021-10-14 09:55:00 55.3 18.5 13.1 55.3 55.3 14.0 17.2 13.2 261.9 241.5 0.00 0.0961983 51.9
2021-10-14 10:00:00 55.5 18.0 12.7 55.5 55.5 16.5 18.5 13.6 270.8 255.0 0.00 0.0987002 52.0
2021-10-14 10:05:00 55.7 17.7 12.4 55.7 55.7 14.9 19.0 13.8 238.8 226.4 0.00 0.1012952 52.1
2021-10-14 10:10:00 55.4 17.8 12.3 55.4 55.4 11.7 19.0 13.9 233.7 235.1 0.00 0.1036837 52.1
2021-10-14 10:15:00 56.0 16.4 10.9 56.0 56.0 17.1 20.6 15.4 216.2 240.9 0.00 0.1064651 52.2
2021-10-14 10:20:00 55.9 15.9 10.1 55.9 55.9 14.0 18.7 15.4 252.1 238.2 0.00 0.1089791 52.2
2021-10-14 10:25:00 56.6 14.9 9.4 56.6 56.6 13.5 18.3 14.7 267.2 239.0 0.00 0.1115436 52.3
2021-10-14 10:30:00 56.8 14.4 8.7 56.8 56.8 14.0 21.2 15.0 237.6 228.1 0.00 0.1136594 52.3
2021-10-14 10:35:00 57.5 15.0 10.1 57.5 57.5 11.0 20.1 14.0 250.6 227.0 0.00 0.1160375 52.4
2021-10-14 10:40:00 57.0 14.6 9.2 57.0 57.0 16.5 20.5 15.1 249.8 240.8 0.00 0.1177001 52.5
2021-10-14 10:45:00 57.0 14.4 8.8 57.0 57.0 14.2 23.2 16.1 240.8 233.2 0.00 0.1200051 52.6
2021-10-14 10:50:00 57.5 15.8 11.3 57.5 57.5 10.6 18.7 14.7 258.6 243.4 0.00 0.1220130 52.7
2021-10-14 10:55:00 58.2 18.0 14.9 58.2 58.2 15.5 18.5 13.5 223.1 246.8 0.00 0.1234501 52.8
2021-10-14 11:00:00 57.4 15.6 10.8 57.4 57.4 17.2 21.0 15.2 254.8 248.5 0.00 0.1248441 52.9
2021-10-14 11:05:00 57.5 16.3 12.0 57.5 57.5 14.2 21.5 16.2 243.5 248.4 0.00 0.1270791 53.0
2021-10-14 11:10:00 57.5 16.0 11.6 57.5 57.5 16.4 21.5 17.1 286.4 246.8 0.00 0.1286531 53.1
2021-10-14 11:15:00 58.0 16.1 12.1 58.0 58.0 11.7 20.5 15.7 266.2 233.8 0.00 0.1308989 53.2
2021-10-14 11:20:00 58.2 15.4 11.3 58.2 58.2 18.1 20.8 15.7 258.2 249.7 0.00 0.1320834 53.3
2021-10-14 11:25:00 58.0 15.4 11.1 58.0 58.0 16.9 21.5 17.3 216.6 247.8 0.00 0.1333063 53.4
2021-10-14 11:30:00 58.8 15.2 11.6 58.8 58.8 21.7 21.7 15.2 246.6 234.8 0.00 0.1349594 53.5
2021-10-14 11:35:00 58.6 13.9 9.3 58.6 58.6 17.1 22.3 16.4 250.4 230.8 0.00 0.1358831 53.6
2021-10-14 11:40:00 58.8 13.2 8.4 58.8 58.8 19.6 20.3 16.5 41.7 227.6 0.00 0.1371702 53.8
2021-10-14 11:45:00 58.8 13.9 9.4 58.8 58.8 16.4 20.6 16.1 263.2 242.7 0.00 0.1382623 53.9
2021-10-14 11:50:00 59.1 15.9 12.7 59.1 59.1 10.8 21.2 14.1 287.3 247.3 0.00 0.1392581 54.0
2021-10-14 11:55:00 59.8 14.6 11.4 59.8 59.8 19.4 20.1 14.8 266.9 227.3 0.00 0.1402456 54.2
2021-10-14 12:00:00 59.3 15.7 12.6 59.3 59.3 13.0 22.4 15.7 261.9 242.7 0.00 0.1407102 54.3
2021-10-14 12:05:00 58.8 15.9 12.5 58.8 58.8 15.5 22.8 16.9 239.4 235.3 0.00 0.1415287 54.4
2021-10-14 12:10:00 59.8 16.1 13.7 59.8 59.8 16.5 21.0 15.0 229.4 246.2 0.00 0.1423090 54.6
2021-10-14 12:15:00 59.2 16.7 14.0 59.2 59.2 16.9 20.6 16.7 274.0 235.2 0.00 0.1424023 54.8
2021-10-14 12:20:00 59.4 16.6 13.9 59.4 59.4 17.4 20.3 15.0 266.8 251.2 0.00 0.1429023 54.9
2021-10-14 12:25:00 60.2 16.5 14.4 60.2 60.2 18.3 20.1 15.2 248.0 246.0 0.00 0.1435707 55.1
2021-10-14 12:30:00 58.9 17.5 14.8 58.9 58.9 11.0 22.3 16.5 209.4 249.0 0.00 0.1433319 55.3
2021-10-14 12:35:00 60.0 16.6 14.5 60.0 60.0 17.8 21.2 14.5 144.2 230.4 0.00 0.1438456 55.5
2021-10-14 12:40:00 59.9 16.4 14.1 59.9 59.9 14.7 19.2 14.5 256.1 246.0 0.00 0.1439949 55.7
2021-10-14 12:45:00 60.3 16.2 14.1 60.3 60.3 14.0 19.2 14.4 258.1 240.8 0.00 0.1439469 55.8
2021-10-14 12:50:00 60.2 16.1 13.9 60.2 60.2 12.2 18.9 14.3 230.3 236.3 0.00 0.1440675 56.0
2021-10-14 12:55:00 60.5 15.6 13.5 60.5 60.5 16.4 19.0 16.0 270.6 245.4 0.00 0.1440247 56.2
2021-10-14 13:00:00 60.3 15.4 13.1 60.3 60.3 17.6 22.1 17.1 266.0 243.1 0.00 0.1436608 56.4
2021-10-14 13:05:00 59.9 16.2 13.8 59.9 59.9 10.1 24.8 17.0 261.4 245.5 0.00 0.1434562 56.6
2021-10-14 13:10:00 60.4 15.3 13.0 60.4 60.4 20.5 20.5 14.4 279.7 232.4 0.00 0.1431379 56.8
2021-10-14 13:15:00 61.2 14.4 12.1 61.2 61.2 15.1 24.2 17.0 253.3 240.4 0.00 0.1428349 57.0
2021-10-14 13:20:00 61.3 14.6 12.6 61.3 61.3 16.2 21.9 14.8 238.0 251.5 0.00 0.1419838 57.3
2021-10-14 13:25:00 61.3 14.4 12.2 61.3 61.3 15.6 18.0 15.3 192.1 237.7 0.00 0.1412253 57.5
2021-10-14 13:30:00 61.8 13.4 11.1 61.8 61.8 16.5 20.6 15.7 255.4 241.9 0.00 0.1407284 57.7
2021-10-14 13:35:00 61.8 12.9 10.1 61.8 61.8 19.9 24.4 15.2 231.1 248.1 0.00 0.1399112 57.9
2021-10-14 13:40:00 61.7 13.7 11.4 61.7 61.7 7.2 23.0 15.5 277.2 234.7 0.00 0.1387680 58.1
2021-10-14 13:45:00 62.7 12.3 9.8 62.7 62.7 16.7 21.0 14.8 255.6 243.6 0.00 0.1380081 58.4
2021-10-14 13:50:00 61.3 13.0 9.9 61.3 61.3 18.1 23.2 16.9 52.1 239.7 0.00 0.1364500 58.6
2021-10-14 13:55:00 61.5 13.5 10.9 61.5 61.5 13.5 25.5 16.2 258.0 240.8 0.00 0.1354296 58.8
2021-10-14 14:00:00 61.6 13.0 10.2 61.6 61.6 23.0 23.0 16.3 248.1 230.1 0.00 0.1342689 59.0
2021-10-14 14:05:00 62.0 13.6 11.5 62.0 62.0 12.2 20.3 13.7 223.8 241.9 0.00 0.1328044 59.2
2021-10-14 14:10:00 61.8 13.7 11.6 61.8 61.8 16.2 21.0 15.1 262.0 247.3 0.00 0.1310846 59.5
2021-10-14 14:15:00 61.5 14.1 11.9 61.5 61.5 17.4 17.4 14.4 262.7 242.5 0.00 0.1295331 59.6
2021-10-14 14:20:00 61.6 14.3 12.3 61.6 61.6 16.2 21.2 15.1 259.2 252.4 0.00 0.1278228 59.8
2021-10-14 14:25:00 61.0 15.2 13.2 61.0 61.0 8.3 17.8 14.3 245.9 258.7 0.00 0.1262637 60.1
2021-10-14 14:30:00 61.9 14.8 13.4 61.9 61.9 17.2 20.3 15.6 265.8 249.1 0.00 0.1246800 60.3
2021-10-14 14:35:00 61.0 15.7 13.9 61.0 61.0 14.4 21.5 15.0 282.3 259.5 0.00 0.1228105 60.5
2021-10-14 14:40:00 61.3 15.7 14.3 61.3 61.3 18.9 22.4 17.0 270.0 245.5 0.00 0.1205007 60.6
2021-10-14 14:45:00 61.6 16.2 15.1 61.6 61.6 11.3 17.8 14.0 248.7 251.2 0.00 0.1186750 60.8
2021-10-14 14:50:00 61.4 17.0 16.1 61.4 61.4 16.5 18.1 13.9 256.5 265.8 0.00 0.1162336 61.0
2021-10-14 14:55:00 61.3 16.5 15.4 61.3 61.3 12.1 21.7 14.1 264.2 263.9 0.00 0.1141802 61.2
2021-10-14 15:00:00 61.3 16.7 15.6 61.3 61.3 10.5 20.1 14.7 267.0 253.1 0.00 0.1122421 61.4
2021-10-14 15:05:00 61.3 16.3 15.1 61.3 61.3 18.0 22.1 16.4 234.1 251.2 0.00 0.1098012 61.6
2021-10-14 15:10:00 61.8 16.2 15.4 61.8 61.8 15.8 20.8 14.5 230.0 238.1 0.00 0.1073940 61.8
2021-10-14 15:15:00 61.9 17.0 16.6 61.9 61.9 14.2 14.9 11.5 260.5 258.5 0.00 0.1048672 62.0
2021-10-14 15:20:00 61.0 17.7 16.7 61.0 61.0 18.9 18.9 14.0 240.1 261.6 0.00 0.1020610 62.1
2021-10-14 15:25:00 60.9 17.4 16.2 60.9 60.9 13.0 21.5 15.0 259.2 246.9 0.00 0.0998027 62.3
2021-10-14 15:30:00 62.0 16.0 15.3 62.0 62.0 19.0 19.0 13.7 244.1 241.2 0.00 0.0977058 62.5
2021-10-14 15:35:00 61.6 16.9 16.2 61.6 61.6 11.0 19.6 12.6 233.2 239.9 0.00 0.0947273 62.6
2021-10-14 15:40:00 61.4 17.0 16.1 61.4 61.4 12.6 17.4 13.2 278.0 246.2 0.00 0.0919641 62.8
2021-10-14 15:45:00 61.3 17.1 16.1 61.3 61.3 12.4 21.0 14.4 266.5 247.5 0.00 0.0895106 62.9
2021-10-14 15:50:00 61.8 17.1 16.7 61.8 61.8 16.0 16.9 13.0 260.8 253.7 0.00 0.0869681 63.1
2021-10-14 15:55:00 61.8 16.6 16.0 61.8 61.8 12.2 20.8 13.4 230.9 240.3 0.00 0.0839824 63.2
2021-10-14 16:00:00 61.8 17.4 17.0 61.8 61.8 11.2 18.3 13.8 253.4 239.8 0.00 0.0809746 63.3
2021-10-14 16:05:00 62.1 18.0 18.1 62.1 62.1 8.1 15.1 9.5 247.1 255.0 0.00 0.0783671 63.5
2021-10-14 16:10:00 61.9 17.1 16.7 61.9 61.9 14.2 14.7 11.8 238.7 258.2 0.00 0.0751329 63.6
2021-10-14 16:15:00 61.9 16.7 16.2 61.9 61.9 19.4 21.4 14.7 259.1 238.8 0.00 0.0726586 63.7
2021-10-14 16:20:00 61.4 17.0 16.2 61.4 61.4 14.2 21.0 16.0 198.4 235.5 0.00 0.0697397 63.8
2021-10-14 16:25:00 61.8 17.2 16.6 61.8 61.8 9.7 19.0 13.5 269.5 249.4 0.00 0.0669478 63.9
2021-10-14 16:30:00 61.8 16.6 15.9 61.8 61.8 16.5 19.9 15.3 246.5 241.8 0.00 0.0640140 64.0
2021-10-14 16:35:00 61.5 16.7 15.8 61.5 61.5 13.3 18.9 13.1 241.2 247.1 0.00 0.0609407 64.1
2021-10-14 16:40:00 61.8 16.6 15.9 61.8 61.8 14.0 19.4 12.2 232.6 247.0 0.00 0.0576325 64.2
2021-10-14 16:45:00 61.4 16.5 15.5 61.4 61.4 16.9 19.2 15.8 164.6 236.8 0.00 0.0546928 64.3
2021-10-14 16:50:00 61.3 16.6 15.6 61.3 61.3 16.0 20.3 14.7 218.4 231.6 0.00 0.0517847 64.4
2021-10-14 16:55:00 61.4 16.9 16.0 61.4 61.4 16.7 18.3 13.6 207.3 250.6 0.00 0.0488227 64.5
2021-10-14 17:00:00 61.0 17.5 16.5 61.0 61.0 7.8 18.3 11.8 268.3 258.8 0.00 0.0454346 64.5
2021-10-14 17:05:00 61.4 16.2 15.0 61.4 61.4 14.6 16.7 13.6 225.4 249.3 0.00 0.0428959 64.6
2021-10-14 17:10:00 61.0 16.4 15.0 61.0 61.0 18.9 24.0 16.1 266.7 234.0 0.00 0.0398675 64.6
2021-10-14 17:15:00 60.8 16.6 15.2 60.8 60.8 13.3 18.3 13.9 242.7 252.5 0.00 0.0368143 64.7
2021-10-14 17:20:00 60.9 16.5 15.1 60.9 60.9 17.4 17.8 13.0 250.3 246.2 0.00 0.0341482 64.7
2021-10-14 17:25:00 60.8 16.9 15.5 60.8 60.8 13.5 19.4 14.5 239.7 235.5 0.00 0.0310742 64.7
2021-10-14 17:30:00 60.4 16.8 15.1 60.4 60.4 20.5 21.4 16.5 241.4 249.0 0.00 0.0283169 64.8
2021-10-14 17:35:00 60.4 17.4 15.9 60.4 60.4 16.7 17.8 14.0 269.8 252.0 0.00 0.0254612 64.8
2021-10-14 17:40:00 60.2 17.3 15.5 60.2 60.2 14.2 16.0 12.4 227.7 248.9 0.00 0.0226682 64.8
2021-10-14 17:45:00 59.9 17.2 15.2 59.9 59.9 13.7 18.0 14.6 274.8 245.0 0.00 0.0202603 64.8
2021-10-14 17:50:00 59.9 17.3 15.3 59.9 59.9 10.3 20.1 14.7 252.0 246.4 0.00 0.0176320 64.8
2021-10-14 17:55:00 59.4 17.8 15.5 59.4 59.4 12.1 16.5 12.7 210.3 252.0 0.00 0.0147236 64.8
2021-10-14 18:00:00 59.2 17.9 15.6 59.2 59.2 13.1 16.5 12.8 211.2 242.8 0.00 0.0121291 64.8
2021-10-14 18:05:00 58.8 19.0 16.6 58.8 58.8 14.9 18.3 13.8 263.8 250.8 0.00 0.0096948 64.8
2021-10-14 18:10:00 58.4 19.5 16.8 58.4 58.4 9.0 16.9 11.2 261.9 262.6 0.00 0.0067843 64.7
2021-10-14 18:15:00 58.0 19.3 16.3 58.0 58.0 9.9 14.6 10.5 249.5 254.0 0.00 0.0043904 64.7
2021-10-14 18:20:00 57.5 19.8 16.5 57.5 57.5 13.5 14.9 9.7 246.8 251.7 0.00 0.0018934 64.7
2021-10-14 18:25:00 57.1 20.2 16.6 57.1 57.1 8.8 15.3 10.0 252.4 253.9 0.00 0.0000383 64.6
2021-10-14 18:30:00 55.8 21.8 17.3 55.8 55.8 5.3 9.9 6.8 265.7 272.7 0.00 0.0000000 64.6
2021-10-14 18:35:00 55.4 22.7 17.8 55.4 55.4 7.8 9.2 7.4 289.2 268.5 0.00 0.0000000 64.5
2021-10-14 18:40:00 55.4 22.9 18.0 55.4 55.4 7.1 9.4 7.8 169.8 271.5 0.00 0.0000000 64.5
2021-10-14 18:45:00 54.9 23.1 17.9 54.9 54.9 8.8 12.2 7.4 305.2 273.7 0.00 0.0000000 64.4
2021-10-14 18:50:00 55.0 23.2 18.1 55.0 55.0 5.8 10.8 7.3 277.6 275.4 0.00 0.0000000 64.4
2021-10-14 18:55:00 54.4 23.8 18.2 54.4 54.4 6.0 8.7 6.2 282.9 265.2 0.00 0.0000000 64.3
2021-10-14 19:00:00 54.2 24.0 18.2 54.2 54.2 5.5 8.1 6.5 269.3 269.1 0.00 0.0000000 64.2
2021-10-14 19:05:00 54.0 24.1 18.1 54.0 54.0 5.3 9.0 6.6 260.2 263.1 0.00 0.0000000 64.2
2021-10-14 19:10:00 54.0 24.1 18.1 54.0 54.0 7.8 9.0 6.9 239.7 257.6 0.00 0.0000000 64.1
2021-10-14 19:15:00 53.8 24.5 18.2 53.8 53.8 7.6 9.9 7.1 261.9 246.8 0.00 0.0000000 64.0
2021-10-14 19:20:00 53.1 25.1 18.3 53.1 53.1 6.3 8.5 6.6 242.0 245.8 0.00 0.0000000 64.0
2021-10-14 19:25:00 52.6 25.6 18.3 52.6 52.6 7.4 7.6 6.4 237.0 247.5 0.00 0.0000000 63.9
2021-10-14 19:30:00 52.3 25.8 18.3 52.3 52.3 6.0 8.1 6.2 217.9 240.7 0.00 0.0000000 63.8
2021-10-14 19:35:00 52.0 26.1 18.3 52.0 52.0 4.9 9.4 6.2 252.0 238.4 0.00 0.0000000 63.7
2021-10-14 19:40:00 51.3 26.7 18.2 51.3 51.3 6.5 7.6 5.6 234.9 243.4 0.00 0.0000000 63.6
2021-10-14 19:45:00 51.3 26.7 18.2 51.3 51.3 6.0 7.4 5.9 242.2 245.0 0.00 0.0000000 63.5
2021-10-14 19:50:00 52.0 25.9 18.0 52.0 52.0 5.8 8.7 6.9 248.2 242.5 0.00 0.0000000 63.4
2021-10-14 19:55:00 51.8 26.1 18.1 51.8 51.8 8.1 9.0 6.6 235.6 243.9 0.00 0.0000000 63.4
2021-10-14 20:00:00 51.9 25.9 17.9 51.9 51.9 6.9 8.8 7.2 243.0 243.1 0.00 0.0000000 63.3
2021-10-14 20:05:00 51.7 26.1 17.9 51.7 51.7 5.6 8.1 6.4 216.9 235.3 0.00 0.0000000 63.2
2021-10-14 20:10:00 51.0 26.5 17.8 51.0 51.0 6.9 8.5 6.5 217.4 230.1 0.00 0.0000000 63.1
2021-10-14 20:15:00 50.6 27.1 17.8 50.6 50.6 5.3 7.4 6.2 183.4 220.0 0.00 0.0000000 63.0
2021-10-14 20:20:00 49.6 28.2 17.9 47.5 49.6 5.3 7.2 6.1 220.4 208.3 0.00 0.0000000 62.9
2021-10-14 20:25:00 48.3 29.5 17.9 45.9 48.3 5.6 6.2 5.5 202.8 206.8 0.00 0.0000000 62.9
2021-10-14 20:30:00 48.0 29.8 17.8 45.6 48.0 5.3 7.4 6.0 233.9 217.4 0.00 0.0000000 62.8
2021-10-14 20:35:00 48.0 29.6 17.7 45.0 48.0 6.3 7.1 6.2 231.5 223.7 0.00 0.0000000 62.7
2021-10-14 20:40:00 48.1 29.2 17.4 45.0 48.1 6.7 7.8 6.5 127.5 228.4 0.00 0.0000000 62.6
2021-10-14 20:45:00 48.2 28.9 17.3 44.8 48.2 7.6 7.8 6.4 237.9 228.9 0.00 0.0000000 62.5
2021-10-14 20:50:00 48.4 28.6 17.2 45.7 48.4 6.0 7.8 6.5 237.9 225.8 0.00 0.0000000 62.4
2021-10-14 20:55:00 48.5 27.9 16.8 45.7 48.5 6.3 9.7 6.5 248.0 233.3 0.00 0.0000000 62.3
2021-10-14 21:00:00 48.4 28.3 16.9 45.8 48.4 5.8 7.4 5.7 226.9 234.3 0.00 0.0000000 62.2
2021-10-14 21:05:00 48.4 27.9 16.7 45.4 48.4 6.5 8.0 6.3 197.8 241.3 0.00 0.0000000 62.1
2021-10-14 21:10:00 48.3 27.9 16.5 45.3 48.3 6.5 8.0 6.6 245.5 243.0 0.00 0.0000000 62.0
2021-10-14 21:15:00 48.2 27.9 16.5 45.1 48.2 6.7 7.6 6.4 233.9 233.9 0.00 0.0000000 62.0
2021-10-14 21:20:00 48.4 27.6 16.4 45.5 48.4 6.3 10.1 6.7 250.4 242.5 0.00 0.0000000 61.9
2021-10-14 21:25:00 48.0 27.8 16.2 44.9 48.0 6.7 8.1 6.3 244.4 243.1 0.00 0.0000000 61.8
2021-10-14 21:30:00 48.7 26.8 16.0 44.7 48.7 9.0 9.0 7.3 245.3 246.3 0.00 0.0000000 61.7
2021-10-14 21:35:00 49.1 26.4 16.0 46.1 49.1 7.1 9.4 7.1 258.4 251.2 0.00 0.0000000 61.6
2021-10-14 21:40:00 49.1 26.1 15.8 45.8 49.1 7.6 8.8 7.5 252.1 251.3 0.00 0.0000000 61.5
2021-10-14 21:45:00 49.4 25.9 15.8 45.6 49.4 9.0 10.5 7.7 247.5 241.5 0.00 0.0000000 61.4
2021-10-14 21:50:00 49.1 26.1 15.7 46.1 49.1 7.1 9.4 7.1 282.5 254.5 0.00 0.0000000 61.3
2021-10-14 21:55:00 49.0 26.0 15.5 45.0 49.0 9.4 9.7 7.2 251.7 254.9 0.00 0.0000000 61.1
2021-10-14 22:00:00 49.5 25.2 15.3 46.1 49.5 8.0 11.2 8.1 262.4 252.9 0.00 0.0000000 61.1
2021-10-14 22:05:00 49.6 25.1 15.2 46.3 49.6 7.8 11.3 8.8 234.1 249.9 0.00 0.0000000 60.9
2021-10-14 22:10:00 49.3 25.3 15.2 46.3 49.3 7.1 10.3 7.8 236.3 246.7 0.00 0.0000000 60.9
2021-10-14 22:15:00 49.3 25.2 15.1 46.0 49.3 7.8 11.3 8.4 267.7 245.9 0.00 0.0000000 60.7
2021-10-14 22:20:00 48.9 25.4 14.9 44.8 48.9 9.7 10.1 8.2 243.9 251.8 0.00 0.0000000 60.7
2021-10-14 22:25:00 49.0 25.1 14.7 44.9 49.0 9.6 10.5 8.7 246.9 250.6 0.00 0.0000000 60.6
2021-10-14 22:30:00 48.9 25.0 14.6 45.0 48.9 9.0 10.6 8.8 244.2 253.8 0.00 0.0000000 60.5
2021-10-14 22:35:00 48.7 25.2 14.6 45.4 48.7 7.6 11.0 8.4 233.1 251.4 0.00 0.0000000 60.4
2021-10-14 22:40:00 48.8 25.1 14.6 45.2 48.8 8.3 11.3 8.2 257.0 257.6 0.00 0.0000000 60.3
2021-10-14 22:45:00 48.7 25.5 14.9 44.9 48.7 8.7 10.8 8.0 271.1 261.2 0.00 0.0000000 60.2
2021-10-14 22:50:00 48.5 25.7 14.9 45.1 48.5 7.8 12.1 8.3 222.5 259.8 0.00 0.0000000 60.1
2021-10-14 22:55:00 48.8 25.6 15.1 44.7 48.8 9.6 14.0 9.2 281.5 265.9 0.00 0.0000000 60.0
2021-10-14 23:00:00 48.5 25.9 15.1 44.3 48.5 9.6 11.5 9.4 278.0 258.4 0.00 0.0000000 59.9
2021-10-14 23:05:00 48.3 26.4 15.3 43.7 48.3 10.5 12.1 9.0 243.8 262.9 0.00 0.0000000 59.8
2021-10-14 23:10:00 48.4 26.4 15.4 44.0 48.4 10.3 12.8 10.0 287.9 265.5 0.00 0.0000000 59.7
2021-10-14 23:15:00 48.1 27.0 15.7 44.7 48.1 7.2 11.0 8.6 273.0 266.2 0.00 0.0000000 59.6
2021-10-14 23:20:00 48.1 26.9 15.6 45.0 48.1 6.7 12.4 9.6 269.6 273.0 0.00 0.0000000 59.6
2021-10-14 23:25:00 47.6 27.8 15.9 44.2 47.6 7.1 11.3 8.9 286.9 276.9 0.00 0.0000000 59.5
2021-10-14 23:30:00 47.0 28.4 15.9 43.4 47.0 7.4 12.1 8.9 273.2 272.5 0.00 0.0000000 59.4
2021-10-14 23:35:00 46.6 29.0 16.0 42.4 46.6 8.5 10.8 8.6 261.7 264.4 0.00 0.0000000 59.3
2021-10-14 23:40:00 46.5 29.5 16.3 41.8 46.5 9.6 11.7 8.5 212.1 265.9 0.00 0.0000000 59.2
2021-10-14 23:45:00 46.0 29.9 16.2 42.3 46.0 7.1 11.0 8.7 256.0 266.8 0.00 0.0000000 59.1
2021-10-14 23:50:00 46.1 29.9 16.3 42.7 46.1 6.5 12.8 9.2 271.7 277.0 0.00 0.0000000 59.0
2021-10-14 23:55:00 45.6 30.9 16.6 40.9 45.6 9.2 10.1 8.5 246.5 266.8 0.00 0.0000000 58.9
2021-10-15 00:00:00 45.1 31.6 16.6 40.5 45.1 8.5 11.7 8.6 160.6 263.7 0.00 0.0000000 58.9

Data is courtesy of the NM Climate Center. DO NOT USE IN LEGAL PROCEEDINGS.